Flight Track Log - Related Links

Times and Time Zones

All times are in EDT time to prevent confusion due to time zone crossing. See the N673DW flight status page for this flight to view local times or setup timezone preferences in your user account.

Time Position Orientation Groundspeed Altitude Reporting Facility
EDT Latitude Longitude Course Direction KTS MPH feet Rate Location/Type
Mon 09:54:09 AM 30.2189 -81.8997 252° West 85 98 500  Level Jacksonville Center
Mon 09:54:46 AM 30.2147 -81.9142 252° West 72 83 900 673 Climbing Jacksonville Center
Mon 09:55:47 AM 30.2150 -81.9358 271° West 65 75 1,600 216 Climbing Jacksonville Center
Mon 09:57:00 AM 30.2135 -81.9406 250° West  Level FlightAware Approximate
Mon 09:59:51 AM 30.2261 -82.0489 250° West 91 105 2,000  Level Jacksonville Center
Mon 10:01:00 AM 30.2239 -82.0448 122° Southeast  Level FlightAware Approximate
Mon 10:01:53 AM 30.2556 -82.0750 122° Southeast 112 129 2,000  Level Jacksonville Center
Mon 10:03:55 AM 30.3117 -82.0503 21° North 100 115 2,000  Level Jacksonville Center
Mon 10:04:00 AM 30.2048 -81.9681 250° West  Level FlightAware Approximate
Mon 10:04:51 AM 30.3306 -82.0311 41° Northeast 105 121 2,000  Level Jacksonville Center
Mon 10:05:00 AM 30.2036 -81.9720 250° West  Level FlightAware Approximate
Mon 10:05:52 AM 30.3575 -82.0164 25° Northeast 105 121 2,000  Level Jacksonville Center
Mon 10:06:53 AM 30.3697 -81.9825 67° East 112 129 1,900 -38 Descending Jacksonville Center
Mon 10:09:00 AM 30.3082 -81.9396 149° Southeast  Level Estimated
Mon 10:11:04 AM 30.3208 -81.8772 149° Southeast 89 102 1,800  Level Jacksonville Center
Mon 10:11:59 AM 30.3000 -81.8772 180° South 85 98 1,500 -564 Descending Jacksonville Center
Mon 10:13:01 AM 30.2750 -81.8750 176° South 87 100 700 -488 Descending Jacksonville Center
Mon 10:14:02 AM 30.2500 -81.8753 181° South 91 105 500 -49 Descending Jacksonville Center
Mon 10:15:03 AM 30.2289 -81.8661 159° South 99 114 600 98 Climbing Jacksonville Center
Mon 10:16:00 AM 30.2188 -81.8772 149° Southeast  Level Estimated
Mon 10:17:00 AM 30.2167 -81.8667 180° South  Level FlightAware Approximate
Mon 10:24:00 AM 30.2188 -81.8772 180° South  Level Estimated
Mon 10:25:00 AM 30.2188 -81.8772 180° South  Level Estimated
Mon 10:26:00 AM 30.2188 -81.8772 180° South  Level Estimated
Mon 10:27:00 AM 30.2188 -81.8772 180° South  Level Estimated
Mon 10:28:00 AM 30.2188 -81.8772 180° South  Level Estimated
Mon 10:29:00 AM 30.2188 -81.8772 180° South  Level Estimated
Mon 10:30:00 AM 30.2188 -81.8772 180° South  Level Estimated
Mon 10:31:00 AM 30.2188 -81.8772 180° South  Level Estimated

Login

Don't have an account? Register now (free) for customized features, flight alerts, and more!